createdAt,value
2018-01-26T00:00:57.005Z,36.2
2018-01-26T00:01:58.036Z,35.0
2018-01-26T00:02:58.830Z,37.3
2018-01-26T00:03:59.557Z,33.5
2018-01-26T00:05:00.275Z,33.8
2018-01-26T00:06:01.007Z,34.5
2018-01-26T00:07:01.734Z,39.0
2018-01-26T00:08:02.468Z,37.5
2018-01-26T00:09:03.260Z,46.8
2018-01-26T00:10:04.288Z,32.5
2018-01-26T00:11:05.024Z,38.0
2018-01-26T00:12:05.799Z,37.6
2018-01-26T00:13:06.526Z,28.0
2018-01-26T00:14:07.237Z,34.7
2018-01-26T00:15:08.015Z,33.3
2018-01-26T00:16:08.740Z,36.0
2018-01-26T00:17:09.464Z,35.3
2018-01-26T00:18:10.195Z,39.1
2018-01-26T00:19:10.922Z,38.6
2018-01-26T00:20:11.706Z,39.4
2018-01-26T00:21:12.430Z,38.9
2018-01-26T00:22:13.145Z,41.3
2018-01-26T00:23:13.875Z,38.1
2018-01-26T00:24:14.599Z,38.0
2018-01-26T00:25:15.368Z,36.2
2018-01-26T00:26:16.114Z,37.4
2018-01-26T00:27:16.884Z,39.9
2018-01-26T00:28:17.609Z,34.6
2018-01-26T00:29:18.351Z,39.4
2018-01-26T00:30:19.120Z,38.2
2018-01-26T00:31:19.901Z,45.4
2018-01-26T00:32:20.635Z,39.4
2018-01-26T00:33:21.365Z,38.2
2018-01-26T00:34:22.105Z,45.7
2018-01-26T00:35:22.849Z,42.0
2018-01-26T00:36:23.624Z,43.2
2018-01-26T00:37:24.356Z,43.7
2018-01-26T00:38:25.076Z,46.3
2018-01-26T00:39:25.805Z,42.5
2018-01-26T00:40:26.536Z,40.5
2018-01-26T00:41:27.536Z,40.8
2018-01-26T00:42:28.277Z,45.9
2018-01-26T00:43:29.009Z,36.9
2018-01-26T00:44:29.739Z,46.0
2018-01-26T00:45:30.506Z,43.0
2018-01-26T00:46:31.227Z,41.3
2018-01-26T00:47:31.960Z,42.5
2018-01-26T00:48:32.727Z,51.3
2018-01-26T00:49:33.474Z,45.1
2018-01-26T00:50:34.257Z,50.4
2018-01-26T00:51:35.043Z,45.9
2018-01-26T00:52:35.777Z,51.0
2018-01-26T00:53:36.580Z,54.3
2018-01-26T00:54:37.316Z,54.2
2018-01-26T00:55:38.047Z,50.8
2018-01-26T00:56:38.766Z,51.4
2018-01-26T00:57:39.504Z,54.8
2018-01-26T00:58:40.294Z,48.8
2018-01-26T00:59:41.069Z,52.4
2018-01-26T01:00:41.795Z,53.9
2018-01-26T01:01:42.522Z,51.1
2018-01-26T01:02:43.254Z,47.8
2018-01-26T01:03:43.987Z,45.1
2018-01-26T01:04:44.715Z,48.3
2018-01-26T01:05:45.501Z,57.0
2018-01-26T01:06:46.256Z,46.1
2018-01-26T01:07:46.977Z,53.0
2018-01-26T01:08:47.829Z,62.9
2018-01-26T01:09:48.546Z,51.3
2018-01-26T01:10:49.268Z,51.6
2018-01-26T01:11:50.077Z,54.3
2018-01-26T01:12:50.857Z,55.2
2018-01-26T01:13:51.599Z,55.5
2018-01-26T01:14:52.329Z,51.9
2018-01-26T01:15:53.057Z,57.4
2018-01-26T01:16:53.873Z,49.9
2018-01-26T01:17:54.609Z,54.4
2018-01-26T01:18:55.326Z,51.7
2018-01-26T01:19:56.062Z,66.6
2018-01-26T01:20:56.775Z,61.7
2018-01-26T01:21:57.514Z,52.7
2018-01-26T01:22:58.279Z,48.0
2018-01-26T01:23:59.013Z,53.5
2018-01-26T01:24:59.747Z,59.4
2018-01-26T01:26:00.475Z,68.8
2018-01-26T01:27:01.205Z,61.3
2018-01-26T01:28:01.931Z,58.0
2018-01-26T01:29:03.010Z,62.5
2018-01-26T01:30:03.802Z,59.5
2018-01-26T01:31:04.606Z,62.9
2018-01-26T01:32:05.414Z,57.2
2018-01-26T01:33:06.188Z,67.4
2018-01-26T01:34:07.215Z,65.9
2018-01-26T01:35:07.961Z,67.4
2018-01-26T01:36:08.692Z,66.5
2018-01-26T01:37:09.477Z,68.8
2018-01-26T01:38:10.204Z,74.5
2018-01-26T01:39:10.938Z,78.7
2018-01-26T01:40:11.747Z,64.4
2018-01-26T01:41:12.462Z,77.1
2018-01-26T01:42:13.196Z,76.2
2018-01-26T01:43:13.996Z,72.6
2018-01-26T01:44:14.746Z,86.4
2018-01-26T01:45:15.476Z,77.3
2018-01-26T01:46:16.204Z,77.0
2018-01-26T01:47:16.936Z,81.6
2018-01-26T01:48:17.645Z,84.2
2018-01-26T01:49:18.369Z,83.3
2018-01-26T01:50:19.096Z,90.5
2018-01-26T01:51:19.836Z,79.3
2018-01-26T01:52:20.553Z,95.5
2018-01-26T01:53:21.287Z,93.6
2018-01-26T01:54:22.094Z,92.4
2018-01-26T01:55:22.817Z,86.8
2018-01-26T01:56:23.620Z,90.5
2018-01-26T01:57:24.357Z,91.3
2018-01-26T01:58:25.149Z,95.1
2018-01-26T01:59:25.878Z,104.6
2018-01-26T02:00:26.685Z,103.3
2018-01-26T02:01:27.767Z,104.0
2018-01-26T02:02:28.575Z,110.5
2018-01-26T02:03:29.306Z,100.3
2018-01-26T02:04:30.030Z,108.2
2018-01-26T02:05:30.809Z,99.0
2018-01-26T02:06:31.588Z,102.8
2018-01-26T02:07:32.327Z,124.0
2018-01-26T02:08:33.138Z,111.0
2018-01-26T02:09:33.923Z,124.8
2018-01-26T02:10:34.702Z,107.9
2018-01-26T02:11:35.427Z,126.7
2018-01-26T02:12:36.157Z,120.5
2018-01-26T02:13:37.260Z,109.6
2018-01-26T02:14:37.986Z,115.2
2018-01-26T02:15:38.705Z,111.6
2018-01-26T02:16:39.429Z,107.1
2018-01-26T02:17:40.157Z,126.7
2018-01-26T02:18:40.877Z,108.6
2018-01-26T02:19:41.701Z,116.4
2018-01-26T02:20:42.535Z,131.7
2018-01-26T02:21:43.255Z,128.5
2018-01-26T02:22:43.975Z,110.7
2018-01-26T02:23:44.707Z,123.2
2018-01-26T02:24:45.419Z,137.2
2018-01-26T02:25:46.139Z,125.4
2018-01-26T02:26:46.915Z,134.4
2018-01-26T02:27:47.639Z,136.4
2018-01-26T02:28:48.378Z,133.1
2018-01-26T02:29:49.095Z,135.6
2018-01-26T02:30:49.876Z,158.5
2018-01-26T02:31:50.597Z,150.2
2018-01-26T02:32:51.394Z,127.6
2018-01-26T02:33:52.118Z,152.8
2018-01-26T02:34:52.936Z,148.3
2018-01-26T02:35:53.673Z,153.4
2018-01-26T02:36:54.465Z,139.6
2018-01-26T02:37:55.185Z,146.5
2018-01-26T02:38:55.908Z,172.1
2018-01-26T02:39:56.645Z,159.0
2018-01-26T02:40:57.429Z,153.0
2018-01-26T02:41:58.226Z,149.4
2018-01-26T02:42:58.965Z,164.6
2018-01-26T02:43:59.691Z,181.9
2018-01-26T02:45:00.414Z,188.9
2018-01-26T02:46:01.145Z,151.3
2018-01-26T02:47:01.884Z,182.8
2018-01-26T02:48:02.595Z,169.9
2018-01-26T02:49:03.327Z,168.2
2018-01-26T02:50:04.046Z,155.4
2018-01-26T02:51:04.781Z,169.9
2018-01-26T02:52:05.620Z,166.5
2018-01-26T02:53:06.419Z,173.5
2018-01-26T02:54:07.209Z,176.4
2018-01-26T02:55:07.964Z,171.5
2018-01-26T02:56:08.703Z,192.3
2018-01-26T02:57:09.487Z,180.4
2018-01-26T02:58:10.284Z,200.0
2018-01-26T02:59:11.066Z,177.4
2018-01-26T03:00:11.859Z,173.3
2018-01-26T03:01:12.587Z,163.6
2018-01-26T03:02:13.574Z,187.0
2018-01-26T03:03:14.315Z,187.8
2018-01-26T03:04:15.036Z,210.1
2018-01-26T03:05:15.776Z,190.6
2018-01-26T03:06:16.466Z,195.2
2018-01-26T03:07:17.255Z,184.1
2018-01-26T03:08:17.986Z,213.3
2018-01-26T03:09:18.726Z,168.7
2018-01-26T03:10:19.447Z,203.5
2018-01-26T03:11:20.237Z,203.3
2018-01-26T03:12:21.095Z,203.0
2018-01-26T03:13:21.815Z,174.7
2018-01-26T03:14:22.535Z,194.5
2018-01-26T03:15:23.262Z,236.6
2018-01-26T03:16:24.057Z,208.0
2018-01-26T03:17:24.821Z,178.2
2018-01-26T03:18:25.504Z,221.7
2018-01-26T03:19:26.307Z,205.8
2018-01-26T03:20:27.124Z,205.4
2018-01-26T03:21:27.866Z,210.7
2018-01-26T03:22:28.609Z,198.4
2018-01-26T03:23:35.595Z,228.2
2018-01-26T03:24:36.384Z,229.6
2018-01-26T03:25:37.167Z,225.4
2018-01-26T03:26:37.898Z,245.2
2018-01-26T03:27:38.625Z,231.1
2018-01-26T03:28:39.393Z,223.8
2018-01-26T03:29:40.140Z,228.1
2018-01-26T03:30:40.920Z,241.9
2018-01-26T03:31:41.663Z,234.1
2018-01-26T03:32:42.383Z,244.5
2018-01-26T03:33:43.163Z,221.1
2018-01-26T03:34:43.883Z,227.3
2018-01-26T03:35:44.615Z,257.5
2018-01-26T03:36:45.349Z,216.2
2018-01-26T03:37:46.126Z,252.8
2018-01-26T03:38:46.950Z,209.4
2018-01-26T03:39:47.728Z,260.1
2018-01-26T03:40:48.554Z,244.1
2018-01-26T03:41:49.266Z,211.6
2018-01-26T03:42:49.997Z,257.7
2018-01-26T03:43:50.763Z,253.5
2018-01-26T03:44:51.486Z,245.6
2018-01-26T03:45:52.216Z,265.2
2018-01-26T03:46:52.927Z,234.6
2018-01-26T03:47:53.655Z,244.1
2018-01-26T03:48:54.395Z,215.0
2018-01-26T03:49:55.173Z,238.7
2018-01-26T03:50:55.905Z,251.0
2018-01-26T03:51:56.629Z,264.0
2018-01-26T03:52:57.420Z,282.9
2018-01-26T03:53:58.194Z,234.2
2018-01-26T03:54:58.926Z,233.4
2018-01-26T03:55:59.664Z,263.1
2018-01-26T03:57:00.445Z,266.6
2018-01-26T03:58:01.177Z,289.6
2018-01-26T03:59:01.851Z,251.5
2018-01-26T04:00:02.566Z,245.7
2018-01-26T04:01:03.292Z,273.6
2018-01-26T04:02:04.013Z,279.9
2018-01-26T04:03:05.307Z,258.5
2018-01-26T04:04:06.033Z,262.4
2018-01-26T04:05:06.835Z,314.7
2018-01-26T04:06:07.574Z,274.7
2018-01-26T04:07:08.315Z,290.2
2018-01-26T04:08:09.001Z,278.7
2018-01-26T04:09:10.128Z,250.6
2018-01-26T04:10:10.861Z,274.8
2018-01-26T04:11:11.572Z,293.0
2018-01-26T04:12:12.323Z,287.3
2018-01-26T04:13:13.090Z,284.8
2018-01-26T04:14:13.876Z,285.5
2018-01-26T04:15:14.692Z,311.6
2018-01-26T04:16:15.414Z,291.1
2018-01-26T04:17:16.215Z,292.5
2018-01-26T04:18:16.936Z,258.8
2018-01-26T04:19:17.668Z,301.8
2018-01-26T04:20:18.505Z,351.0
2018-01-26T04:21:19.302Z,350.1
2018-01-26T04:22:20.071Z,317.0
2018-01-26T04:23:20.847Z,309.3
2018-01-26T04:24:21.568Z,308.7
2018-01-26T04:25:22.296Z,293.6
2018-01-26T04:26:23.087Z,320.8
2018-01-26T04:27:23.806Z,351.8
2018-01-26T04:28:24.524Z,394.3
2018-01-26T04:29:25.237Z,359.9
2018-01-26T04:30:26.034Z,341.2
2018-01-26T04:31:26.827Z,299.4
2018-01-26T04:32:27.618Z,252.1
2018-01-26T04:33:28.379Z,279.7
2018-01-26T04:34:29.193Z,308.8
2018-01-26T04:35:29.927Z,341.9
2018-01-26T04:36:30.749Z,349.3
2018-01-26T04:37:31.555Z,330.2
2018-01-26T04:38:32.268Z,361.8
2018-01-26T04:39:32.996Z,338.9
2018-01-26T04:40:33.769Z,285.5
2018-01-26T04:41:34.531Z,319.9
2018-01-26T04:42:35.253Z,341.3
2018-01-26T04:43:35.978Z,363.0
2018-01-26T04:44:36.693Z,327.2
2018-01-26T04:45:37.418Z,318.1
2018-01-26T04:46:38.154Z,315.7
2018-01-26T04:47:39.127Z,297.6
2018-01-26T04:48:39.907Z,298.9
2018-01-26T04:49:40.624Z,322.1
2018-01-26T04:50:41.344Z,345.9
2018-01-26T04:51:42.076Z,312.1
2018-01-26T04:52:42.803Z,338.3
2018-01-26T04:53:43.539Z,364.4
2018-01-26T04:54:44.349Z,322.8
2018-01-26T04:55:45.134Z,317.7
2018-01-26T04:56:45.863Z,355.3
2018-01-26T04:57:46.611Z,358.9
2018-01-26T04:58:47.397Z,357.0
2018-01-26T04:59:48.113Z,335.8
2018-01-26T05:00:49.148Z,366.7
2018-01-26T05:01:49.904Z,323.3
2018-01-26T05:02:50.633Z,355.7
2018-01-26T05:03:51.366Z,300.9
2018-01-26T05:04:52.102Z,279.9
2018-01-26T05:05:52.826Z,271.1
2018-01-26T05:06:53.554Z,308.1
2018-01-26T05:07:54.595Z,361.3
2018-01-26T05:08:55.334Z,370.7
2018-01-26T05:09:56.069Z,324.0
2018-01-26T05:10:56.796Z,300.6
2018-01-26T05:11:57.524Z,327.7
2018-01-26T05:12:58.250Z,311.2
2018-01-26T05:13:59.038Z,242.5
2018-01-26T05:14:59.777Z,301.3
2018-01-26T05:16:00.539Z,349.7
2018-01-26T05:17:01.254Z,326.2
2018-01-26T05:18:02.044Z,333.5
2018-01-26T05:19:02.758Z,327.7
2018-01-26T05:20:03.561Z,313.8
2018-01-26T05:21:04.360Z,322.4
2018-01-26T05:22:05.078Z,276.6
2018-01-26T05:23:05.831Z,304.1
2018-01-26T05:24:06.574Z,270.8
2018-01-26T05:25:07.371Z,305.9
2018-01-26T05:26:08.104Z,274.2
2018-01-26T05:27:08.816Z,305.9
2018-01-26T05:28:09.547Z,321.7
2018-01-26T05:29:10.348Z,313.8
2018-01-26T05:30:11.134Z,361.0
2018-01-26T05:31:11.869Z,316.1
2018-01-26T05:32:12.642Z,321.8
2018-01-26T05:33:13.404Z,348.5
2018-01-26T05:34:14.130Z,354.6
2018-01-26T05:35:14.839Z,383.2
2018-01-26T05:36:15.570Z,343.9
2018-01-26T05:37:16.284Z,370.5
2018-01-26T05:38:17.054Z,351.3
2018-01-26T05:39:17.805Z,341.6
2018-01-26T05:40:18.554Z,333.5
2018-01-26T05:41:19.323Z,338.8
2018-01-26T05:42:20.068Z,333.9
2018-01-26T05:43:20.844Z,325.1
2018-01-26T05:44:21.588Z,314.8
2018-01-26T05:45:22.311Z,308.6
2018-01-26T05:46:23.050Z,317.4
2018-01-26T05:47:23.814Z,348.0
2018-01-26T05:48:24.781Z,362.5
2018-01-26T05:49:25.578Z,376.5
2018-01-26T05:50:26.387Z,374.5
2018-01-26T05:51:27.097Z,375.1
2018-01-26T05:52:27.864Z,363.9
2018-01-26T05:53:28.636Z,375.3
2018-01-26T05:54:29.428Z,410.4
2018-01-26T05:55:30.164Z,364.5
2018-01-26T05:56:30.900Z,361.3
2018-01-26T05:57:31.693Z,381.8
2018-01-26T05:58:32.418Z,371.2
2018-01-26T05:59:33.204Z,346.9
2018-01-26T06:00:33.946Z,419.2
2018-01-26T06:01:34.662Z,393.0
2018-01-26T06:02:35.394Z,270.0
2018-01-26T06:03:36.116Z,315.2
2018-01-26T06:04:36.905Z,314.7
2018-01-26T06:05:37.647Z,342.9
2018-01-26T06:06:38.493Z,363.9
2018-01-26T06:07:39.215Z,338.8
2018-01-26T06:08:40.026Z,343.7
2018-01-26T06:09:40.746Z,399.0
2018-01-26T06:10:41.477Z,332.2
2018-01-26T06:11:42.207Z,278.7
2018-01-26T06:12:42.995Z,312.8
2018-01-26T06:13:43.734Z,301.1
2018-01-26T06:14:44.478Z,299.4
2018-01-26T06:15:45.204Z,283.3
2018-01-26T06:16:45.924Z,306.9
2018-01-26T06:17:46.694Z,345.2
2018-01-26T06:18:47.427Z,330.3
2018-01-26T06:19:48.164Z,329.2
2018-01-26T06:20:48.905Z,400.7
2018-01-26T06:21:49.634Z,388.8
2018-01-26T06:22:50.383Z,364.9
2018-01-26T06:23:51.097Z,363.7
2018-01-26T06:24:51.914Z,425.2
2018-01-26T06:25:52.644Z,327.9
2018-01-26T06:26:53.364Z,322.0
2018-01-26T06:27:54.088Z,358.2
2018-01-26T06:28:54.897Z,369.1
2018-01-26T06:29:55.628Z,324.9
2018-01-26T06:30:56.410Z,284.4
2018-01-26T06:31:57.133Z,310.6
2018-01-26T06:32:57.856Z,300.5
2018-01-26T06:33:58.583Z,304.8
2018-01-26T06:34:59.319Z,312.1
2018-01-26T06:36:00.034Z,333.4
2018-01-26T06:37:00.755Z,329.7
2018-01-26T06:38:01.476Z,321.5
2018-01-26T06:39:02.208Z,329.8
2018-01-26T06:40:03.008Z,341.9
2018-01-26T06:41:03.735Z,401.1
2018-01-26T06:42:04.552Z,402.1
2018-01-26T06:43:05.326Z,385.0
2018-01-26T06:44:06.046Z,355.4
2018-01-26T06:45:06.828Z,394.5
2018-01-26T06:46:07.646Z,364.6
2018-01-26T06:47:08.367Z,375.6
2018-01-26T06:48:09.095Z,282.8
2018-01-26T06:49:09.813Z,339.5
2018-01-26T06:50:10.545Z,327.2
2018-01-26T06:51:11.282Z,352.4
2018-01-26T06:52:12.095Z,331.5
2018-01-26T06:53:12.926Z,307.5
2018-01-26T06:54:13.644Z,335.2
2018-01-26T06:55:14.374Z,344.1
2018-01-26T06:56:15.105Z,361.7
2018-01-26T06:57:15.908Z,402.4
2018-01-26T06:58:16.633Z,354.9
2018-01-26T06:59:17.380Z,389.0
2018-01-26T07:00:18.126Z,381.7
2018-01-26T07:01:18.868Z,385.1
2018-01-26T07:02:19.605Z,382.0
2018-01-26T07:03:20.328Z,369.5
2018-01-26T07:04:21.046Z,394.4
2018-01-26T07:05:21.816Z,366.9
2018-01-26T07:06:22.549Z,394.4
2018-01-26T07:07:23.353Z,392.4
2018-01-26T07:08:24.072Z,411.9
2018-01-26T07:09:24.782Z,426.0
2018-01-26T07:10:25.498Z,414.1
2018-01-26T07:11:26.241Z,424.6
2018-01-26T07:12:27.043Z,398.3
2018-01-26T07:13:27.860Z,359.7
2018-01-26T07:14:28.581Z,339.2
2018-01-26T07:15:29.365Z,326.5
2018-01-26T07:16:30.105Z,327.5
2018-01-26T07:17:30.850Z,344.6
2018-01-26T07:18:31.540Z,324.0
2018-01-26T07:19:32.261Z,306.4
2018-01-26T07:20:32.986Z,320.4
2018-01-26T07:21:33.703Z,273.9
2018-01-26T07:22:34.446Z,316.8
2018-01-26T07:23:35.184Z,365.2
2018-01-26T07:24:35.959Z,336.3
2018-01-26T07:25:36.746Z,341.7
2018-01-26T07:26:37.485Z,342.3
2018-01-26T07:27:38.255Z,368.0
2018-01-26T07:28:38.976Z,358.5
2018-01-26T07:29:39.704Z,354.4
2018-01-26T07:30:40.442Z,325.8
2018-01-26T07:31:41.185Z,343.4
2018-01-26T07:32:41.994Z,339.3
2018-01-26T07:33:42.787Z,368.2
2018-01-26T07:34:44.599Z,326.2
2018-01-26T07:35:45.595Z,373.3
2018-01-26T07:36:46.314Z,337.6
2018-01-26T07:37:47.056Z,367.4
2018-01-26T07:38:47.783Z,397.4
2018-01-26T07:39:48.529Z,437.0
2018-01-26T07:40:49.311Z,279.0
2018-01-26T07:41:50.078Z,338.5
2018-01-26T07:42:50.861Z,363.4
2018-01-26T07:43:51.587Z,400.2
2018-01-26T07:44:52.355Z,410.9
2018-01-26T07:45:53.086Z,373.2
2018-01-26T07:46:53.836Z,430.1
2018-01-26T07:47:54.588Z,339.6
2018-01-26T07:48:55.316Z,377.7
2018-01-26T07:49:56.125Z,420.6
2018-01-26T07:50:57.013Z,400.9
2018-01-26T07:51:57.702Z,369.5
2018-01-26T07:52:58.430Z,383.9
2018-01-26T07:53:59.153Z,376.7
2018-01-26T07:54:59.874Z,365.5
2018-01-26T07:56:00.602Z,379.9
2018-01-26T07:57:01.346Z,402.2
2018-01-26T07:58:02.096Z,439.4
2018-01-26T07:59:02.919Z,400.9
2018-01-26T08:00:03.892Z,381.4
2018-01-26T08:01:04.628Z,354.5
2018-01-26T08:02:05.355Z,381.0
2018-01-26T08:03:06.074Z,302.8
2018-01-26T08:04:06.806Z,341.2
2018-01-26T08:05:07.599Z,290.0
2018-01-26T08:06:08.334Z,319.8
2018-01-26T08:07:09.106Z,353.7
2018-01-26T08:08:09.892Z,345.0
2018-01-26T08:09:10.636Z,320.7
2018-01-26T08:10:11.374Z,335.5
2018-01-26T08:11:12.176Z,340.6
2018-01-26T08:12:12.914Z,366.0
2018-01-26T08:13:13.654Z,386.6
2018-01-26T08:14:14.885Z,364.3
2018-01-26T08:15:16.141Z,366.1
2018-01-26T08:16:18.010Z,365.4
2018-01-26T08:17:20.507Z,318.3
2018-01-26T08:18:21.517Z,351.1
2018-01-26T08:19:22.363Z,338.1
2018-01-26T08:20:24.001Z,339.4
2018-01-26T08:21:25.177Z,374.3
2018-01-26T08:22:25.865Z,398.0
2018-01-26T08:23:26.684Z,364.9
2018-01-26T08:24:27.415Z,361.0
2018-01-26T08:25:28.193Z,344.0
2018-01-26T08:26:28.928Z,331.4
2018-01-26T08:27:29.684Z,338.0
2018-01-26T08:28:30.422Z,305.3
2018-01-26T08:29:31.187Z,303.9
2018-01-26T08:30:31.999Z,313.3
2018-01-26T08:31:32.730Z,376.1
2018-01-26T08:32:33.458Z,356.2
2018-01-26T08:33:34.193Z,367.1
2018-01-26T08:34:34.927Z,374.8
2018-01-26T08:35:35.703Z,369.8
2018-01-26T08:36:36.495Z,321.5
2018-01-26T08:37:37.213Z,332.9
2018-01-26T08:38:37.946Z,331.3
2018-01-26T08:39:38.693Z,353.3
2018-01-26T08:40:39.468Z,339.0
2018-01-26T08:41:40.243Z,341.2
2018-01-26T08:42:40.976Z,374.4
2018-01-26T08:43:41.765Z,312.1
2018-01-26T08:44:42.490Z,345.7
2018-01-26T08:45:43.225Z,337.5
2018-01-26T08:46:43.955Z,305.8
2018-01-26T08:47:44.763Z,360.1
2018-01-26T08:48:45.484Z,330.8
2018-01-26T08:49:46.209Z,315.4
2018-01-26T08:50:46.958Z,311.1
2018-01-26T08:51:47.744Z,344.5
2018-01-26T08:52:48.474Z,332.3
2018-01-26T08:53:49.507Z,335.9
2018-01-26T08:54:50.245Z,331.4
2018-01-26T08:55:50.995Z,346.3
2018-01-26T08:56:51.734Z,314.9
2018-01-26T08:57:52.485Z,329.2
2018-01-26T08:58:53.291Z,278.3
2018-01-26T08:59:54.129Z,291.7
2018-01-26T09:00:54.864Z,312.9
2018-01-26T09:01:55.666Z,292.6
2018-01-26T09:02:56.389Z,280.2
2018-01-26T09:03:57.125Z,270.2
2018-01-26T09:04:57.915Z,263.3
2018-01-26T09:05:58.653Z,243.1
2018-01-26T09:06:59.388Z,236.3
2018-01-26T09:08:00.197Z,242.2
2018-01-26T09:09:00.934Z,220.8
2018-01-26T09:10:01.726Z,224.5
2018-01-26T09:11:02.472Z,247.7
2018-01-26T09:12:03.192Z,245.3
2018-01-26T09:13:03.928Z,242.0
2018-01-26T09:14:04.745Z,240.4
2018-01-26T09:15:05.517Z,213.5
2018-01-26T09:16:06.255Z,220.0
2018-01-26T09:17:06.973Z,209.0
2018-01-26T09:18:07.703Z,205.2
2018-01-26T09:19:08.437Z,197.5
2018-01-26T09:20:09.173Z,187.6
2018-01-26T09:21:09.924Z,179.5
2018-01-26T09:22:10.626Z,185.8
2018-01-26T09:23:11.384Z,179.2
2018-01-26T09:24:12.114Z,158.9
2018-01-26T09:25:12.854Z,167.6
2018-01-26T09:26:13.587Z,141.0
2018-01-26T09:27:14.326Z,114.3
2018-01-26T09:28:15.125Z,112.9
2018-01-26T09:29:15.896Z,91.6
2018-01-26T09:30:16.617Z,86.3
2018-01-26T09:31:17.341Z,83.4
2018-01-26T09:32:18.193Z,76.4
2018-01-26T09:33:18.923Z,73.7
2018-01-26T09:34:19.676Z,74.6
2018-01-26T09:35:20.446Z,71.8
2018-01-26T09:36:21.244Z,59.3
2018-01-26T09:37:22.281Z,59.7
2018-01-26T09:38:22.999Z,66.1
2018-01-26T09:39:23.784Z,63.4
2018-01-26T09:40:24.502Z,61.2
2018-01-26T09:41:25.241Z,61.2
2018-01-26T09:42:26.068Z,64.1
2018-01-26T09:43:26.826Z,60.5
2018-01-26T09:44:27.565Z,63.6
2018-01-26T09:45:28.287Z,61.9
2018-01-26T09:46:29.022Z,62.0
2018-01-26T09:47:29.764Z,60.1
2018-01-26T09:48:30.620Z,49.9
2018-01-26T09:49:31.363Z,54.3
2018-01-26T09:50:32.093Z,59.1
2018-01-26T09:51:32.825Z,55.1
2018-01-26T09:52:33.556Z,46.4
2018-01-26T09:53:34.365Z,54.8
2018-01-26T09:54:35.153Z,62.0
2018-01-26T09:55:35.874Z,48.3
2018-01-26T09:56:36.601Z,49.9
2018-01-26T09:57:37.336Z,57.2
2018-01-26T09:58:38.065Z,51.6
2018-01-26T09:59:39.092Z,55.5
2018-01-26T10:00:39.828Z,57.8
2018-01-26T10:01:40.623Z,68.5
2018-01-26T10:02:41.435Z,69.9
2018-01-26T10:03:42.166Z,62.8
2018-01-26T10:04:43.254Z,62.4
2018-01-26T10:05:44.047Z,72.2
2018-01-26T10:06:44.786Z,61.4
2018-01-26T10:07:45.513Z,56.7
2018-01-26T10:08:46.242Z,60.8
2018-01-26T10:09:46.973Z,62.8
2018-01-26T10:10:47.753Z,64.9
2018-01-26T10:11:48.504Z,62.8
2018-01-26T10:12:49.233Z,63.4
2018-01-26T10:13:49.963Z,67.5
2018-01-26T10:14:50.701Z,78.6
2018-01-26T10:15:51.483Z,77.6
2018-01-26T10:16:52.223Z,75.1
2018-01-26T10:17:52.966Z,67.7
2018-01-26T10:18:53.692Z,80.6
2018-01-26T10:19:54.435Z,70.8
2018-01-26T10:20:55.225Z,75.1
2018-01-26T10:21:55.961Z,84.0
2018-01-26T10:22:56.724Z,80.5
2018-01-26T10:23:57.494Z,85.1
2018-01-26T10:24:58.237Z,77.5
2018-01-26T10:25:59.029Z,81.8
2018-01-26T10:26:59.765Z,85.3
2018-01-26T10:28:00.504Z,83.1
2018-01-26T10:29:01.307Z,82.6
2018-01-26T10:30:02.060Z,77.7
2018-01-26T10:31:02.835Z,85.7
2018-01-26T10:32:03.545Z,87.2
2018-01-26T10:33:04.280Z,73.4
2018-01-26T10:34:05.065Z,80.8
2018-01-26T10:35:05.785Z,71.5
2018-01-26T10:36:06.814Z,76.5
2018-01-26T10:37:07.597Z,69.8
2018-01-26T10:38:08.380Z,71.5
2018-01-26T10:39:09.137Z,73.2
2018-01-26T10:40:09.922Z,68.6
2018-01-26T10:41:10.736Z,63.6
2018-01-26T10:42:11.457Z,72.9
2018-01-26T10:43:12.244Z,68.9
2018-01-26T10:44:13.043Z,68.8
2018-01-26T10:45:13.785Z,71.1
2018-01-26T10:46:14.600Z,75.8
2018-01-26T10:47:15.368Z,70.7
2018-01-26T10:48:16.163Z,69.6
2018-01-26T10:49:16.948Z,67.6
2018-01-26T10:50:17.676Z,82.2
2018-01-26T10:51:18.451Z,71.4
2018-01-26T10:52:19.187Z,75.9
2018-01-26T10:53:19.944Z,80.2
2018-01-26T10:54:20.710Z,80.1
2018-01-26T10:55:21.443Z,71.1
2018-01-26T10:56:22.193Z,70.9
2018-01-26T10:57:22.923Z,73.2
2018-01-26T10:58:23.679Z,69.5
2018-01-26T10:59:24.496Z,74.5
2018-01-26T11:00:25.267Z,80.4
2018-01-26T11:01:25.943Z,77.5
2018-01-26T11:02:26.684Z,87.5
2018-01-26T11:03:27.532Z,77.4
2018-01-26T11:04:28.272Z,70.6
2018-01-26T11:05:29.023Z,71.5
2018-01-26T11:06:29.777Z,70.8
2018-01-26T11:07:30.505Z,67.5
2018-01-26T11:08:31.234Z,67.8
2018-01-26T11:09:32.067Z,71.9
2018-01-26T11:10:32.914Z,65.9
2018-01-26T11:11:33.645Z,63.5
2018-01-26T11:12:34.374Z,71.4
2018-01-26T11:13:35.153Z,70.9
2018-01-26T11:14:35.883Z,61.5
2018-01-26T11:15:36.627Z,70.0
2018-01-26T11:16:37.385Z,61.7
2018-01-26T11:17:38.146Z,54.2
2018-01-26T11:18:38.935Z,53.6
2018-01-26T11:19:39.700Z,55.1
2018-01-26T11:20:40.443Z,49.3
2018-01-26T11:21:41.184Z,55.9
2018-01-26T11:22:41.965Z,52.7
2018-01-26T11:23:42.747Z,58.4
2018-01-26T11:24:43.480Z,47.4
2018-01-26T11:25:44.225Z,49.8
2018-01-26T11:26:44.948Z,55.4
2018-01-26T11:27:45.692Z,50.8
2018-01-26T11:28:46.511Z,49.6
2018-01-26T11:29:47.351Z,58.3
2018-01-26T11:30:48.035Z,54.3
2018-01-26T11:31:48.784Z,51.4
2018-01-26T11:32:49.524Z,56.0
2018-01-26T11:33:50.604Z,53.5
2018-01-26T11:34:52.246Z,55.8
2018-01-26T11:35:53.270Z,56.1
2018-01-26T11:36:54.059Z,50.8
2018-01-26T11:37:54.912Z,52.0
2018-01-26T11:38:55.712Z,52.1
2018-01-26T11:39:56.501Z,51.3
2018-01-26T11:40:57.214Z,46.6
2018-01-26T11:41:57.961Z,60.3
2018-01-26T11:42:58.718Z,50.9
2018-01-26T11:43:59.455Z,56.6
2018-01-26T11:45:00.210Z,54.2
2018-01-26T11:46:01.996Z,54.3
2018-01-26T11:47:02.966Z,46.9
2018-01-26T11:48:03.746Z,55.1
2018-01-26T11:49:04.495Z,54.6
2018-01-26T11:50:05.247Z,54.0
2018-01-26T11:51:05.973Z,55.0
2018-01-26T11:52:06.699Z,57.0
2018-01-26T11:53:07.475Z,54.7
2018-01-26T11:54:08.211Z,57.5
2018-01-26T11:55:09.040Z,55.1
2018-01-26T11:56:09.823Z,63.3
2018-01-26T11:57:10.554Z,66.5
2018-01-26T11:58:11.393Z,63.3
2018-01-26T11:59:12.123Z,58.2
2018-01-26T12:00:12.852Z,52.4
2018-01-26T12:01:13.590Z,54.0
2018-01-26T12:02:14.327Z,60.1
2018-01-26T12:03:15.133Z,56.7
2018-01-26T12:04:15.884Z,59.4
2018-01-26T12:05:16.668Z,55.0
2018-01-26T12:06:17.474Z,49.7
2018-01-26T12:07:18.273Z,50.6
2018-01-26T12:08:19.311Z,55.5
2018-01-26T12:09:20.062Z,58.5
2018-01-26T12:10:20.825Z,55.5
2018-01-26T12:11:21.566Z,60.4
2018-01-26T12:12:22.326Z,55.1
2018-01-26T12:13:23.124Z,52.0
2018-01-26T12:14:23.856Z,48.2
2018-01-26T12:15:24.585Z,54.1
2018-01-26T12:16:25.322Z,60.9
2018-01-26T12:17:26.055Z,54.8
2018-01-26T12:18:26.953Z,59.1
2018-01-26T12:19:27.727Z,49.9
2018-01-26T12:20:28.502Z,48.0
2018-01-26T12:21:29.236Z,54.6
2018-01-26T12:22:30.041Z,46.0
2018-01-26T12:23:31.157Z,48.9
2018-01-26T12:24:31.942Z,58.2
2018-01-26T12:25:32.689Z,50.4
2018-01-26T12:26:33.477Z,45.6
2018-01-26T12:27:34.203Z,53.6
2018-01-26T12:28:35.006Z,46.8
2018-01-26T12:29:36.018Z,49.1
2018-01-26T12:30:36.954Z,45.2
2018-01-26T12:31:38.747Z,57.3
2018-01-26T12:32:39.763Z,45.0
2018-01-26T12:33:40.920Z,50.9
2018-01-26T12:34:41.901Z,45.8
2018-01-26T12:35:42.718Z,45.1
2018-01-26T12:36:43.492Z,46.3
2018-01-26T12:37:44.284Z,44.6
2018-01-26T12:38:45.006Z,47.6
2018-01-26T12:39:46.875Z,38.4
2018-01-26T12:40:47.974Z,43.2
2018-01-26T12:41:48.795Z,43.4
2018-01-26T12:42:49.575Z,46.7
2018-01-26T12:43:51.978Z,47.7
2018-01-26T12:44:52.879Z,48.9
2018-01-26T12:45:53.655Z,41.0
2018-01-26T12:46:54.413Z,48.6
2018-01-26T12:47:55.167Z,50.5
2018-01-26T12:48:56.397Z,54.7
2018-01-26T12:49:57.378Z,49.9
2018-01-26T12:50:58.140Z,48.6
2018-01-26T12:51:58.871Z,45.7
2018-01-26T12:52:59.608Z,48.7
2018-01-26T12:54:00.333Z,45.9
2018-01-26T12:55:01.080Z,44.5
2018-01-26T12:56:01.876Z,45.9
2018-01-26T12:57:02.752Z,47.9
2018-01-26T12:58:03.544Z,47.8
2018-01-26T12:59:04.306Z,49.8
2018-01-26T13:00:05.031Z,50.1
2018-01-26T13:01:05.768Z,46.8
2018-01-26T13:02:06.821Z,46.8
2018-01-26T13:03:07.613Z,46.9
2018-01-26T13:04:08.354Z,40.2
2018-01-26T13:05:09.172Z,44.1
2018-01-26T13:06:09.916Z,39.4
2018-01-26T13:07:10.643Z,43.3
2018-01-26T13:08:11.413Z,49.4
2018-01-26T13:09:12.120Z,49.6
2018-01-26T13:10:12.903Z,47.7
2018-01-26T13:11:13.652Z,47.8
2018-01-26T13:12:14.383Z,43.3
2018-01-26T13:13:15.149Z,45.8
2018-01-26T13:14:15.875Z,48.4